createdAt,value
2022-12-01T00:02:09.469Z,16.80
2022-12-01T00:05:12.248Z,16.52
2022-12-01T00:08:15.029Z,14.00
2022-12-01T00:11:17.888Z,13.97
2022-12-01T00:14:20.536Z,15.55
2022-12-01T00:17:23.304Z,14.73
2022-12-01T00:20:25.982Z,16.37
2022-12-01T00:23:28.772Z,15.20
2022-12-01T00:26:31.410Z,14.87
2022-12-01T00:29:34.189Z,14.10
2022-12-01T00:32:36.859Z,14.43
2022-12-01T00:35:40.004Z,15.23
2022-12-01T00:38:42.965Z,16.53
2022-12-01T00:41:45.799Z,14.80
2022-12-01T00:44:48.614Z,16.15
2022-12-01T00:47:54.513Z,16.35
2022-12-01T00:50:57.275Z,14.63
2022-12-01T00:54:00.021Z,15.07
2022-12-01T00:57:02.704Z,16.20
2022-12-01T01:00:06.170Z,15.32
2022-12-01T01:03:09.261Z,15.15
2022-12-01T01:06:12.693Z,15.45
2022-12-01T01:09:16.171Z,16.47
2022-12-01T01:12:18.903Z,15.73
2022-12-01T01:15:22.414Z,15.40
2022-12-01T01:18:25.227Z,15.82
2022-12-01T01:21:28.342Z,14.57
2022-12-01T01:24:34.126Z,14.30
2022-12-01T01:27:36.881Z,15.90
2022-12-01T01:30:40.378Z,15.18
2022-12-01T01:33:45.103Z,15.52
2022-12-01T01:36:47.850Z,14.87
2022-12-01T01:39:51.118Z,16.90
2022-12-01T01:42:55.208Z,15.57
2022-12-01T01:45:57.946Z,16.00
2022-12-01T01:49:11.987Z,16.20
2022-12-01T01:52:15.050Z,14.57
2022-12-01T01:55:18.392Z,15.00
2022-12-01T01:58:21.629Z,15.27
2022-12-01T02:01:24.445Z,15.23
2022-12-01T02:04:28.858Z,14.87
2022-12-01T02:07:34.515Z,14.68
2022-12-01T02:10:55.602Z,17.33
2022-12-01T02:14:31.658Z,15.27
2022-12-01T02:18:04.782Z,16.05
2022-12-01T02:21:16.587Z,17.02
2022-12-01T02:24:37.830Z,17.08
2022-12-01T02:28:28.611Z,18.00
2022-12-01T02:31:40.263Z,17.87
2022-12-01T02:34:52.133Z,17.10
2022-12-01T02:38:17.622Z,17.00
2022-12-01T02:41:34.188Z,18.25
2022-12-01T02:44:42.742Z,17.13
2022-12-01T02:47:45.775Z,16.87
2022-12-01T02:50:48.561Z,17.08
2022-12-01T02:53:51.989Z,16.92
2022-12-01T02:56:54.742Z,16.95
2022-12-01T02:59:57.640Z,17.90
2022-12-01T03:03:16.360Z,15.90
2022-12-01T03:07:00.005Z,16.35
2022-12-01T03:10:19.458Z,15.98
2022-12-01T03:13:56.410Z,15.65
2022-12-01T03:17:08.469Z,16.00
2022-12-01T03:20:33.300Z,16.10
2022-12-01T03:23:41.189Z,16.67
2022-12-01T03:26:46.982Z,17.67
2022-12-01T03:29:52.084Z,16.80
2022-12-01T03:33:04.964Z,19.10
2022-12-01T03:36:15.431Z,16.73
2022-12-01T03:39:21.978Z,18.05
2022-12-01T03:42:27.933Z,17.30
2022-12-01T03:45:42.138Z,16.23
2022-12-01T03:48:44.909Z,15.60
2022-12-01T03:52:15.025Z,16.60
2022-12-01T03:55:20.650Z,16.62
2022-12-01T03:58:27.800Z,17.17
2022-12-01T04:01:32.948Z,16.47
2022-12-01T04:04:35.926Z,16.95
2022-12-01T04:07:39.756Z,15.85
2022-12-01T04:10:45.506Z,17.00
2022-12-01T04:13:48.148Z,15.35
2022-12-01T04:16:50.925Z,15.43
2022-12-01T04:19:53.885Z,15.45
2022-12-01T04:22:56.664Z,14.43
2022-12-01T04:26:00.530Z,14.57
2022-12-01T04:29:06.938Z,15.43
2022-12-01T04:32:09.832Z,14.67
2022-12-01T04:35:13.122Z,14.82
2022-12-01T04:38:15.800Z,15.02
2022-12-01T04:41:18.830Z,15.77
2022-12-01T04:44:25.458Z,15.13
2022-12-01T04:47:30.529Z,14.17
2022-12-01T04:50:33.210Z,16.50
2022-12-01T04:53:36.853Z,15.63
2022-12-01T04:56:39.542Z,14.95
2022-12-01T04:59:42.266Z,15.07
2022-12-01T05:02:45.086Z,15.57
2022-12-01T05:05:47.967Z,15.45
2022-12-01T05:08:51.483Z,15.38
2022-12-01T05:11:54.511Z,15.50
2022-12-01T05:14:57.244Z,16.00
2022-12-01T05:18:03.090Z,17.47
2022-12-01T05:21:10.829Z,17.77
2022-12-01T05:24:14.685Z,16.50
2022-12-01T05:27:17.539Z,16.62
2022-12-01T05:30:23.151Z,18.05
2022-12-01T05:33:30.500Z,18.17
2022-12-01T05:36:33.430Z,19.98
2022-12-01T05:39:36.094Z,20.33
2022-12-01T05:42:38.822Z,19.65
2022-12-01T05:45:41.578Z,18.37
2022-12-01T05:48:44.440Z,20.67
2022-12-01T05:51:47.241Z,25.08
2022-12-01T05:54:50.015Z,23.58
2022-12-01T05:57:52.790Z,24.80
2022-12-01T06:00:55.566Z,24.10
2022-12-01T06:03:58.338Z,26.67
2022-12-01T06:07:01.243Z,23.35
2022-12-01T06:10:04.368Z,23.48
2022-12-01T06:13:07.180Z,22.80
2022-12-01T06:16:13.074Z,24.45
2022-12-01T06:19:18.860Z,25.23
2022-12-01T06:22:21.497Z,24.30
2022-12-01T06:25:24.226Z,23.83
2022-12-01T06:28:26.972Z,23.25
2022-12-01T06:31:29.828Z,23.65
2022-12-01T06:34:32.738Z,22.70
2022-12-01T06:37:38.413Z,27.65
2022-12-01T06:40:41.175Z,29.33
2022-12-01T06:43:46.953Z,27.85
2022-12-01T06:46:53.675Z,27.85
2022-12-01T06:49:56.489Z,28.20
2022-12-01T06:53:00.867Z,28.55
2022-12-01T06:56:07.092Z,30.67
2022-12-01T06:59:10.641Z,26.52
2022-12-01T07:02:13.886Z,38.53
2022-12-01T07:05:17.182Z,29.13
2022-12-01T07:08:23.129Z,28.30
2022-12-01T07:11:25.992Z,50.00
2022-12-01T07:14:29.042Z,38.92
2022-12-01T07:17:31.981Z,46.10
2022-12-01T07:20:34.819Z,46.33
2022-12-01T07:23:40.796Z,48.05
2022-12-01T07:26:48.275Z,39.75
2022-12-01T07:29:51.481Z,43.78
2022-12-01T07:32:54.392Z,43.83
2022-12-01T07:35:57.596Z,43.10
2022-12-01T07:39:04.627Z,38.50
2022-12-01T07:42:07.657Z,39.50
2022-12-01T07:45:10.637Z,38.30
2022-12-01T07:48:14.941Z,35.80
2022-12-01T07:51:18.060Z,39.67
2022-12-01T07:54:21.609Z,41.13
2022-12-01T07:57:30.686Z,37.22
2022-12-01T08:00:43.001Z,36.85
2022-12-01T08:03:45.873Z,36.67
2022-12-01T08:06:48.776Z,36.73
2022-12-01T08:09:52.819Z,36.85
2022-12-01T08:12:55.872Z,41.30
2022-12-01T08:15:58.910Z,37.17
2022-12-01T08:19:02.008Z,36.53
2022-12-01T08:22:04.863Z,36.97
2022-12-01T08:25:08.201Z,35.13
2022-12-01T08:28:11.104Z,32.17
2022-12-01T08:31:20.397Z,25.15
2022-12-01T08:34:23.316Z,25.12
2022-12-01T08:37:26.199Z,23.70
2022-12-01T08:40:29.216Z,25.05
2022-12-01T08:43:56.497Z,29.17
2022-12-01T08:46:54.921Z,26.65
2022-12-01T08:49:57.854Z,22.25
2022-12-01T08:53:00.721Z,21.63
2022-12-01T08:56:37.149Z,22.05
2022-12-01T08:59:40.066Z,19.80
2022-12-01T09:02:43.007Z,18.92
2022-12-01T09:05:46.786Z,16.00
2022-12-01T09:08:49.679Z,14.10
2022-12-01T09:11:52.751Z,12.32
2022-12-01T09:14:55.677Z,12.00
2022-12-01T09:17:58.514Z,11.63
2022-12-01T09:21:02.043Z,12.82
2022-12-01T09:24:06.556Z,12.80
2022-12-01T09:27:09.859Z,11.48
2022-12-01T09:30:13.288Z,12.32
2022-12-01T09:33:16.242Z,13.02
2022-12-01T09:36:19.116Z,13.50
2022-12-01T09:39:22.082Z,13.17
2022-12-01T09:42:33.785Z,13.32
2022-12-01T09:45:41.601Z,12.93
2022-12-01T09:48:47.438Z,12.60
2022-12-01T09:51:54.873Z,12.43
2022-12-01T09:54:58.867Z,12.53
2022-12-01T09:58:03.990Z,12.68
2022-12-01T10:01:07.173Z,12.95
2022-12-01T10:04:39.597Z,12.18
2022-12-01T10:07:48.840Z,12.88
2022-12-01T10:10:53.902Z,12.07
2022-12-01T10:13:56.827Z,13.02
2022-12-01T10:17:12.843Z,12.60
2022-12-01T10:20:43.664Z,10.70
2022-12-01T10:24:04.621Z,9.93
2022-12-01T10:27:28.800Z,10.43
2022-12-01T10:30:32.346Z,9.60
2022-12-01T10:33:46.910Z,12.98
2022-12-01T10:36:50.427Z,11.35
2022-12-01T10:39:54.880Z,11.20
2022-12-01T10:42:57.798Z,11.13
2022-12-01T10:46:02.080Z,11.70
2022-12-01T10:49:10.888Z,12.43
2022-12-01T10:52:39.759Z,12.27
2022-12-01T10:55:47.748Z,13.05
2022-12-01T10:58:54.396Z,11.80
2022-12-01T11:01:58.670Z,13.30
2022-12-01T11:05:33.257Z,12.30
2022-12-01T11:09:05.676Z,11.38
2022-12-01T11:12:15.645Z,11.50
2022-12-01T11:15:30.184Z,11.57
2022-12-01T11:18:39.166Z,10.93
2022-12-01T11:21:51.011Z,10.77
2022-12-01T11:24:53.729Z,11.93
2022-12-01T11:28:02.034Z,11.70
2022-12-01T11:31:14.071Z,11.17
2022-12-01T11:34:29.013Z,11.40
2022-12-01T11:37:36.564Z,12.02
2022-12-01T11:40:52.051Z,10.73
2022-12-01T11:44:02.087Z,10.45
2022-12-01T11:47:25.132Z,10.03
2022-12-01T11:50:35.517Z,9.90
2022-12-01T11:53:41.160Z,10.10
2022-12-01T11:56:45.657Z,9.82
2022-12-01T11:59:48.805Z,9.73
2022-12-01T12:03:19.353Z,10.07
2022-12-01T12:06:43.974Z,9.10
2022-12-01T12:10:17.361Z,9.40
2022-12-01T12:13:41.321Z,10.23
2022-12-01T12:16:44.140Z,10.23
2022-12-01T12:20:08.159Z,9.37
2022-12-01T12:23:29.861Z,9.65
2022-12-01T12:27:00.107Z,11.75
2022-12-01T12:30:15.350Z,13.18
2022-12-01T12:33:30.392Z,13.30
2022-12-01T12:36:50.837Z,14.63
2022-12-01T12:40:08.844Z,15.18
2022-12-01T12:43:36.779Z,14.20
2022-12-01T12:47:15.082Z,15.68
2022-12-01T12:50:46.310Z,17.40
2022-12-01T12:53:54.783Z,13.03
2022-12-01T12:57:18.743Z,14.00
2022-12-01T13:00:25.240Z,14.15
2022-12-01T13:03:35.964Z,13.18
2022-12-01T13:07:01.156Z,13.35
2022-12-01T13:10:15.186Z,13.33
2022-12-01T13:13:29.991Z,13.32
2022-12-01T13:16:36.235Z,13.65
2022-12-01T13:19:40.982Z,13.48
2022-12-01T13:22:44.110Z,13.48
2022-12-01T13:25:50.143Z,14.93
2022-12-01T13:28:57.149Z,13.43
2022-12-01T13:32:00.243Z,13.23
2022-12-01T13:35:17.869Z,13.98
2022-12-01T13:38:26.582Z,14.02
2022-12-01T13:41:38.964Z,13.43
2022-12-01T13:44:44.522Z,14.27
2022-12-01T13:47:47.256Z,15.52
2022-12-01T13:50:56.997Z,13.70
2022-12-01T13:54:27.652Z,13.27
2022-12-01T13:57:33.743Z,11.97
2022-12-01T14:00:37.535Z,12.02
2022-12-01T14:03:41.331Z,11.95
2022-12-01T14:06:52.790Z,12.52
2022-12-01T14:10:08.629Z,12.82
2022-12-01T14:13:18.820Z,12.60
2022-12-01T14:16:22.281Z,11.45
2022-12-01T14:19:38.387Z,11.93
2022-12-01T14:22:45.926Z,11.20
2022-12-01T14:26:21.596Z,12.07
2022-12-01T14:29:43.453Z,13.07
2022-12-01T14:32:46.256Z,13.90
2022-12-01T14:35:49.244Z,12.48
2022-12-01T14:39:06.279Z,13.68
2022-12-01T14:42:12.231Z,12.23
2022-12-01T14:45:17.733Z,11.60
2022-12-01T14:48:26.304Z,11.65
2022-12-01T14:51:32.684Z,13.60
2022-12-01T14:54:44.533Z,14.05
2022-12-01T14:57:50.686Z,15.25
2022-12-01T15:01:01.538Z,19.23
2022-12-01T15:04:06.362Z,21.73
2022-12-01T15:07:10.366Z,21.10
2022-12-01T15:10:23.050Z,18.42
2022-12-01T15:13:40.018Z,16.73
2022-12-01T15:16:43.736Z,14.97
2022-12-01T15:19:46.840Z,14.48
2022-12-01T15:22:51.410Z,14.38
2022-12-01T15:25:55.415Z,13.77
2022-12-01T15:29:37.742Z,12.40
2022-12-01T15:32:43.455Z,11.70
2022-12-01T15:35:48.238Z,10.88
2022-12-01T15:38:52.093Z,12.32
2022-12-01T15:41:56.020Z,11.23
2022-12-01T15:45:18.030Z,10.43
2022-12-01T15:48:29.093Z,11.10
2022-12-01T15:51:32.617Z,10.40
2022-12-01T15:54:36.470Z,11.10
2022-12-01T15:57:46.489Z,10.73
2022-12-01T16:00:58.094Z,11.10
2022-12-01T16:04:05.467Z,11.17
2022-12-01T16:07:10.184Z,11.12
2022-12-01T16:10:33.371Z,10.90
2022-12-01T16:13:45.653Z,11.07
2022-12-01T16:16:50.465Z,10.73
2022-12-01T16:20:17.371Z,10.80
2022-12-01T16:23:24.944Z,11.20
2022-12-01T16:26:28.366Z,10.55
2022-12-01T16:29:41.507Z,12.13
2022-12-01T16:32:49.573Z,13.15
2022-12-01T16:35:52.973Z,11.80
2022-12-01T16:38:58.784Z,11.40
2022-12-01T16:42:05.200Z,11.60
2022-12-01T16:45:13.987Z,11.70
2022-12-01T16:48:20.711Z,11.32
2022-12-01T16:51:30.046Z,10.80
2022-12-01T16:54:49.228Z,11.50
2022-12-01T16:57:53.858Z,11.10
2022-12-01T17:00:56.904Z,12.15
2022-12-01T17:04:07.721Z,11.68
2022-12-01T17:07:11.177Z,11.70
2022-12-01T17:10:14.705Z,11.52
2022-12-01T17:13:19.221Z,12.15
2022-12-01T17:16:22.293Z,12.82
2022-12-01T17:19:25.770Z,13.20
2022-12-01T17:22:28.937Z,11.33
2022-12-01T17:25:32.693Z,11.65
2022-12-01T17:28:36.287Z,12.82
2022-12-01T17:31:39.188Z,12.18
2022-12-01T17:34:42.882Z,12.10
2022-12-01T17:37:45.820Z,12.07
2022-12-01T17:41:02.852Z,12.85
2022-12-01T17:44:06.365Z,13.00
2022-12-01T17:47:09.091Z,11.55
2022-12-01T17:50:12.783Z,13.13
2022-12-01T17:53:15.734Z,11.93
2022-12-01T17:56:18.789Z,11.93
2022-12-01T17:59:21.776Z,13.98
2022-12-01T18:02:29.298Z,12.98
2022-12-01T18:05:32.561Z,12.73
2022-12-01T18:08:36.919Z,12.70
2022-12-01T18:11:43.650Z,13.18
2022-12-01T18:14:46.632Z,12.48
2022-12-01T18:17:49.798Z,12.82
2022-12-01T18:20:53.023Z,12.77
2022-12-01T18:24:01.204Z,13.77
2022-12-01T18:27:04.707Z,13.62
2022-12-01T18:30:08.707Z,13.77
2022-12-01T18:33:22.281Z,13.35
2022-12-01T18:36:29.999Z,13.02
2022-12-01T18:39:33.645Z,14.37
2022-12-01T18:42:36.579Z,13.82
2022-12-01T18:45:40.524Z,13.50
2022-12-01T18:48:48.530Z,14.85
2022-12-01T18:51:52.391Z,13.95
2022-12-01T18:54:58.781Z,14.30
2022-12-01T18:58:02.373Z,18.00
2022-12-01T19:01:22.202Z,18.87
2022-12-01T19:04:26.221Z,21.15
2022-12-01T19:07:30.305Z,18.33
2022-12-01T19:10:33.810Z,19.13
2022-12-01T19:13:37.236Z,20.67
2022-12-01T19:16:42.051Z,17.35
2022-12-01T19:19:46.765Z,17.20
2022-12-01T19:22:52.975Z,18.10
2022-12-01T19:26:06.336Z,18.00
2022-12-01T19:29:09.680Z,19.90
2022-12-01T19:32:12.805Z,20.00
2022-12-01T19:35:16.077Z,19.35
2022-12-01T19:38:19.748Z,18.98
2022-12-01T19:41:25.539Z,19.00
2022-12-01T19:44:31.355Z,20.73
2022-12-01T19:47:35.815Z,20.08
2022-12-01T19:50:38.640Z,20.52
2022-12-01T19:53:41.896Z,18.92
2022-12-01T19:56:45.416Z,20.53
2022-12-01T19:59:48.627Z,20.00
2022-12-01T20:02:51.860Z,20.42
2022-12-01T20:06:01.498Z,21.27
2022-12-01T20:09:06.238Z,22.48
2022-12-01T20:12:09.342Z,21.67
2022-12-01T20:15:12.492Z,21.27
2022-12-01T20:18:16.819Z,22.55
2022-12-01T20:21:28.695Z,21.37
2022-12-01T20:24:31.815Z,19.85
2022-12-01T20:27:36.562Z,20.63
2022-12-01T20:30:40.985Z,18.58
2022-12-01T20:33:46.069Z,20.58
2022-12-01T20:36:54.713Z,20.12
2022-12-01T20:39:58.147Z,19.25
2022-12-01T20:43:01.391Z,21.50
2022-12-01T20:46:05.151Z,18.87
2022-12-01T20:49:09.979Z,18.98
2022-12-01T20:52:13.180Z,19.65
2022-12-01T20:55:17.684Z,19.30
2022-12-01T20:58:20.836Z,18.20
2022-12-01T21:01:24.403Z,17.83
2022-12-01T21:04:27.689Z,18.50
2022-12-01T21:07:31.195Z,17.37
2022-12-01T21:10:45.501Z,17.20
2022-12-01T21:13:48.350Z,17.63
2022-12-01T21:16:52.677Z,17.95
2022-12-01T21:20:01.790Z,17.83
2022-12-01T21:23:15.454Z,17.35
2022-12-01T21:26:19.328Z,17.23
2022-12-01T21:29:39.777Z,16.73
2022-12-01T21:32:44.206Z,17.48
2022-12-01T21:35:50.860Z,17.25
2022-12-01T21:38:57.417Z,16.55
2022-12-01T21:42:13.060Z,18.35
2022-12-01T21:45:35.185Z,17.23
2022-12-01T21:48:38.179Z,17.80
2022-12-01T21:51:41.038Z,17.30
2022-12-01T21:54:43.990Z,17.02
2022-12-01T21:57:49.275Z,17.55
2022-12-01T22:00:53.186Z,16.60
2022-12-01T22:04:01.817Z,16.77
2022-12-01T22:07:05.740Z,16.23
2022-12-01T22:10:46.050Z,16.98
2022-12-01T22:14:13.617Z,15.52
2022-12-01T22:17:20.279Z,16.70
2022-12-01T22:20:23.307Z,16.25
2022-12-01T22:23:34.116Z,17.65
2022-12-01T22:27:09.599Z,17.40
2022-12-01T22:30:20.542Z,17.02
2022-12-01T22:33:25.077Z,17.07
2022-12-01T22:36:32.254Z,15.98
2022-12-01T22:39:35.147Z,17.48
2022-12-01T22:42:38.093Z,16.00
2022-12-01T22:45:40.929Z,17.58
2022-12-01T22:48:50.047Z,16.70
2022-12-01T22:52:03.119Z,17.23
2022-12-01T22:55:15.481Z,17.00
2022-12-01T22:58:31.077Z,16.42
2022-12-01T23:01:35.744Z,15.77
2022-12-01T23:04:41.111Z,15.27
2022-12-01T23:07:44.078Z,16.95
2022-12-01T23:10:46.963Z,16.37
2022-12-01T23:13:49.672Z,16.55
2022-12-01T23:17:07.973Z,16.08
2022-12-01T23:20:21.841Z,16.87
2022-12-01T23:23:30.295Z,16.12
2022-12-01T23:26:33.659Z,18.05
2022-12-01T23:29:37.005Z,16.50
2022-12-01T23:32:40.017Z,17.77
2022-12-01T23:35:53.757Z,17.10
2022-12-01T23:38:58.911Z,16.33
2022-12-01T23:42:03.089Z,16.10
2022-12-01T23:45:11.736Z,17.27
2022-12-01T23:48:35.423Z,16.00
2022-12-01T23:51:40.538Z,15.93
2022-12-01T23:54:43.310Z,15.23
2022-12-01T23:57:46.138Z,15.40
